Algona, WA

1:27 AM PDT on May 30, 2015 (GMT -0700)
Celery Ave | | Change Station
CLOSE
Current Station
Personal Weather Station
Location: Algona, WA
Elevation: 66 ft
Nearby Weather Stations

Elev 66 ft 47.29 °N, 122.25 °W | Updated 12 minutes ago

Partly Cloudy
Partly Cloudy
55.7 °F
Feels Like 55.7 °F
N
0.0
Wind Variable Wind from SSW
Gusts 3.0 mph

Today
High -- | Low -- °F
--% Chance of Precip.
Yesterday
High -- | Low -- °F
Precip. -- in
5:18 AM 8:55 PM
Waxing Gibbous, 89% visible
Pressure 29.96 in
Visibility 10.0 miles
Clouds Scattered Clouds 14000 ft
Mostly Cloudy 20000 ft
Dew Point 49 °F
Humidity 78%
Rainfall 0.00 in
Snow Depth Not available.
UV 0 out of 12
Pollen 8.40 out of 12
Air Quality Not available.
Flu Activity Sporadic
METAR KSEA 300753Z 19006KT 10SM SCT140 BKN200 13/09 A2995 RMK AO2 SLP145 T01280094 402610128

More Conditions Fewer Conditions

Pressure 29.96 in
Visibility 10.0 miles
Clouds Scattered Clouds 14000 ft
Mostly Cloudy 20000 ft
Dew Point 49 °F
Humidity 78%
Rainfall 0.00 in
Snow Depth Not available.
UV 0 out of 12
Pollen 8.40 out of 12
Air Quality Not available.
Flu Activity Sporadic
METAR KSEA 300753Z 19006KT 10SM SCT140 BKN200 13/09 A2995 RMK AO2 SLP145 T01280094 402610128

More Conditions Fewer Conditions

10-Day Weather Forecast

Almanac

Astronomy

May. 30, 2015 Rise Set
Actual Time
Civil Twilight
Nautical Twilight
Astronomical Twilight
Moon
Length of Visible Light
Length of Day
Tomorrow will be .
, % of the Moon is Illuminated

Today's Extremes

State Highs State Lows

Community

WunderPhotos

Upload Photos

1,825,472 photos uploaded!

WunderBlogs® & News

Nearby

Air Quality

  Air Quality AQ Index Pollutant
Not available.

Snow Depth

Station Depth Elevation

Earthquake Activity

City Distance Mag. Time & Date
Minimum magnitude displayed is 2.5.

Coastal Water Temperatures

Place Temperature

Stations

Nearby Weather Stations

Station Location Temp. Windchill Dew Point Humidity Wind Precip. Elev Updated Type